Time;durP1;ratioP1;P1;durP2;ratioP2;P2;SDS_P1;SDS_P2;PMS_P1;PMS_P2;Temp;Humidity;BMP_temperature;BMP_pressure;BME280_temperature;BME280_humidity;BME280_pressure;Samples;Min_cycle;Max_cycle;Signal;HPM_P1;HPM_P2
2022/09/29 08:12:20;;;;;;;0.10;0.10;;;;;;;13.85;55.47;96547.78;8095651;23;20239;-76
2022/09/29 08:16:23;;;;;;;0.00;0.00;;;;;;;14.23;54.33;96546.47;8035308;29;20261;-77
2022/09/29 08:20:26;;;;;;;0.00;0.00;;;;;;;14.55;53.77;96553.41;8034981;29;20534;-76
2022/09/29 08:24:30;;;;;;;0.00;0.00;;;;;;;14.97;52.84;96554.22;8035243;29;20242;-77
2022/09/29 08:28:35;;;;;;;0.03;0.03;;;;;;;15.08;52.13;96547.28;8034938;29;20239;-78
2022/09/29 08:32:38;;;;;;;0.10;0.10;;;;;;;15.52;51.98;96553.06;8034468;29;20271;-77
2022/09/29 08:36:41;;;;;;;0.00;0.00;;;;;;;14.36;53.91;96557.53;8034834;29;20404;-77
2022/09/29 08:40:44;;;;;;;0.00;0.00;;;;;;;14.55;53.87;96561.22;8034335;29;20259;-77
2022/09/29 08:44:54;;;;;;;0.00;0.00;;;;;;;14.60;52.23;96569.50;8033951;29;20569;-77
2022/09/29 08:49:14;;;;;;;0.00;0.00;;;;;;;15.08;51.79;96560.31;8033619;29;20230;-76
2022/09/29 08:53:34;;;;;;;0.00;0.00;;;;;;;15.51;51.39;96559.25;8033630;29;20337;-77
2022/09/29 08:57:36;;;;;;;0.00;0.00;;;;;;;15.98;50.25;96554.28;8033788;29;20243;-76
2022/09/29 09:01:49;;;;;;;0.00;0.00;;;;;;;15.86;50.80;96548.38;8033442;29;20243;-76
2022/09/29 09:06:03;;;;;;;0.00;0.00;;;;;;;15.93;50.69;96553.84;8033198;29;20242;-77
2022/09/29 09:10:18;;;;;;;0.00;0.00;;;;;;;16.14;49.80;96557.16;8032696;29;20251;-76
2022/09/29 09:14:34;;;;;;;0.00;0.00;;;;;;;17.15;47.75;96552.38;8032571;29;20243;-77
2022/09/29 09:18:55;;;;;;;0.00;0.00;;;;;;;17.28;47.03;96554.66;8032891;29;20514;-76
2022/09/29 09:22:59;;;;;;;0.00;0.00;;;;;;;17.62;46.77;96551.44;8032873;29;20472;-77
2022/09/29 09:27:02;;;;;;;0.00;0.00;;;;;;;18.71;43.69;96561.00;8032958;29;20242;-75
2022/09/29 09:31:08;;;;;;;0.00;0.00;;;;;;;18.79;44.63;96554.97;8032328;29;20246;-75
2022/09/29 09:35:25;;;;;;;0.00;0.00;;;;;;;18.39;42.97;96556.31;8032857;29;20239;-78
2022/09/29 09:39:31;;;;;;;0.00;0.00;;;;;;;18.10;43.71;96560.81;8032015;29;20515;-77
2022/09/29 09:43:38;;;;;;;0.00;0.00;;;;;;;16.97;44.72;96554.91;8032321;29;20239;-76
2022/09/29 09:47:46;;;;;;;0.00;0.00;;;;;;;17.97;43.57;96549.88;8032537;29;20238;-76
2022/09/29 09:51:57;;;;;;;0.00;0.00;;;;;;;18.38;43.35;96550.25;8031981;29;20247;-75
2022/09/29 09:56:09;;;;;;;0.00;0.00;;;;;;;18.17;43.60;96555.81;8031976;29;20552;-76
2022/09/29 10:00:14;;;;;;;0.00;0.00;;;;;;;18.30;44.46;96563.31;8031835;29;20283;-75
2022/09/29 10:04:17;;;;;;;0.00;0.00;;;;;;;18.10;45.29;96560.00;8031774;29;20234;-76
2022/09/29 10:08:24;;;;;;;0.00;0.00;;;;;;;17.46;45.89;96565.19;8031751;29;20231;-73
2022/09/29 10:12:27;;;;;;;0.00;0.00;;;;;;;17.39;46.86;96569.34;8031132;29;20549;-76
2022/09/29 10:16:35;;;;;;;0.00;0.00;;;;;;;17.09;47.55;96559.94;8031308;29;20238;-76
2022/09/29 10:20:40;;;;;;;0.00;0.00;;;;;;;17.21;47.21;96564.06;8031344;29;20301;-72
2022/09/29 10:24:44;;;;;;;0.00;0.00;;;;;;;16.77;48.89;96576.78;8031632;29;20246;-75
2022/09/29 10:28:51;;;;;;;0.00;0.00;;;;;;;16.90;48.83;96568.69;8031233;29;20238;-76
2022/09/29 10:32:58;;;;;;;0.00;0.00;;;;;;;17.36;48.16;96572.22;8031235;29;20242;-76
2022/09/29 10:37:02;;;;;;;0.00;0.00;;;;;;;16.98;49.45;96571.41;8030895;29;20255;-76
2022/09/29 10:41:08;;;;;;;0.00;0.00;;;;;;;16.80;47.84;96572.09;8031339;29;20230;-76
2022/09/29 10:45:13;;;;;;;0.00;0.00;;;;;;;16.94;48.91;96565.63;8031434;29;20242;-77
2022/09/29 10:49:17;;;;;;;0.00;0.00;;;;;;;17.44;47.96;96569.75;8030766;29;20242;-77
2022/09/29 10:53:25;;;;;;;0.00;0.00;;;;;;;16.79;48.50;96575.69;8030156;29;20242;-78
2022/09/29 10:57:31;;;;;;;0.00;0.00;;;;;;;16.50;49.61;96588.78;8030271;29;20246;-77
2022/09/29 11:01:44;;;;;;;0.00;0.00;;;;;;;16.52;48.69;96594.69;8030761;29;20243;-74
2022/09/29 11:05:53;;;;;;;0.00;0.00;;;;;;;16.34;48.34;96588.53;8031011;29;20385;-75
2022/09/29 11:09:55;;;;;;;0.00;0.00;;;;;;;16.40;46.72;96586.19;8030732;29;20239;-73
2022/09/29 11:14:00;;;;;;;0.00;0.00;;;;;;;16.74;47.38;96592.78;8032694;29;20235;-74
2022/09/29 11:18:17;;;;;;;0.00;0.00;;;;;;;16.66;47.26;96588.25;8030402;29;20254;-74
2022/09/29 11:22:42;;;;;;;0.03;0.03;;;;;;;16.40;47.97;96591.41;8030512;29;20230;-77
2022/09/29 11:26:49;;;;;;;0.00;0.00;;;;;;;16.07;49.30;96595.25;8029989;29;20235;-76
2022/09/29 11:31:07;;;;;;;0.00;0.00;;;;;;;16.57;47.42;96600.34;8030149;29;20235;-75
2022/09/29 11:35:20;;;;;;;0.00;0.00;;;;;;;16.46;46.95;96613.53;8030110;29;20243;-77
2022/09/29 11:39:34;;;;;;;0.00;0.00;;;;;;;16.60;47.05;96615.75;8030119;29;20241;-77
2022/09/29 11:43:46;;;;;;;0.00;0.00;;;;;;;16.42;46.72;96612.19;8029740;29;20276;-76
2022/09/29 11:48:07;;;;;;;0.00;0.00;;;;;;;16.47;46.37;96601.28;8029803;29;20230;-76
2022/09/29 11:52:22;;;;;;;0.00;0.00;;;;;;;16.69;44.94;96601.00;8030728;29;20586;-76
2022/09/29 11:56:31;;;;;;;0.00;0.00;;;;;;;16.64;43.89;96591.94;8030508;29;20239;-74
2022/09/29 12:00:48;;;;;;;0.00;0.00;;;;;;;16.69;43.41;96598.41;8031099;29;20322;-76
2022/09/29 12:04:58;;;;;;;0.00;0.00;;;;;;;16.76;44.89;96596.06;8033129;29;20245;-75
2022/09/29 12:09:16;;;;;;;0.00;0.00;;;;;;;16.66;44.37;96595.22;8035477;29;20251;-78
2022/09/29 12:13:25;;;;;;;0.00;0.00;;;;;;;15.79;44.12;96592.44;8035490;29;20235;-76
2022/09/29 12:17:31;;;;;;;0.00;0.00;;;;;;;15.92;45.34;96600.03;8034718;29;20243;-75
2022/09/29 12:21:39;;;;;;;0.00;0.00;;;;;;;16.26;46.01;96591.84;8034925;29;20242;-78
2022/09/29 12:25:50;;;;;;;0.00;0.00;;;;;;;15.57;46.40;96598.69;8034626;29;20243;-76
2022/09/29 12:29:56;;;;;;;0.00;0.00;;;;;;;16.07;44.78;96600.47;8034814;29;20239;-76
2022/09/29 12:34:02;;;;;;;0.00;0.00;;;;;;;15.97;43.83;96602.22;8034584;29;20254;-77
2022/09/29 12:38:16;;;;;;;0.00;0.00;;;;;;;16.07;44.82;96597.88;8034692;29;20542;-75
2022/09/29 12:42:54;;;;;;;0.00;0.00;;;;;;;16.19;44.92;96601.16;8034673;29;20227;-77
2022/09/29 12:47:02;;;;;;;0.00;0.00;;;;;;;16.22;45.58;96595.66;8031181;29;20241;-76
2022/09/29 12:51:12;;;;;;;0.00;0.00;;;;;;;16.24;44.64;96591.16;8034104;29;20576;-75
2022/09/29 12:55:19;;;;;;;0.00;0.00;;;;;;;16.42;45.14;96592.09;8034089;29;20246;-75
2022/09/29 12:59:31;;;;;;;0.00;0.00;;;;;;;16.48;44.63;96590.72;8033902;29;20251;-76
2022/09/29 13:04:04;;;;;;;0.00;0.00;;;;;;;16.58;44.37;96588.94;8033273;29;20399;-77
2022/09/29 13:08:39;;;;;;;0.00;0.00;;;;;;;16.63;44.07;96591.13;8033650;29;20238;-76
2022/09/29 13:13:17;;;;;;;0.00;0.00;;;;;;;16.76;44.18;96589.03;8003026;29;20246;-75
2022/09/29 13:17:29;;;;;;;0.00;0.00;;;;;;;16.82;43.61;96590.31;7976550;29;20546;-76
2022/09/29 13:21:38;;;;;;;0.00;0.00;;;;;;;17.36;43.66;96583.53;8002251;29;20349;-76
2022/09/29 13:25:53;;;;;;;0.00;0.00;;;;;;;17.08;43.14;96590.53;8003150;29;20462;-76
2022/09/29 13:30:00;;;;;;;0.00;0.00;;;;;;;16.89;44.52;96587.97;8002875;29;20235;-76
2022/09/29 13:34:05;;;;;;;0.00;0.00;;;;;;;16.76;44.95;96596.06;8002614;29;20232;-75
2022/09/29 13:38:11;;;;;;;0.00;0.00;;;;;;;16.73;45.12;96596.34;8002256;29;20320;-76
2022/09/29 13:42:38;;;;;;;0.00;0.00;;;;;;;16.66;45.47;96596.09;8002137;29;20239;-76
2022/09/29 13:46:41;;;;;;;0.00;0.00;;;;;;;16.55;44.89;96609.28;8002474;29;20522;-76
2022/09/29 13:50:47;;;;;;;0.00;0.00;;;;;;;16.59;49.38;96618.50;8001981;29;20236;-78
2022/09/29 13:54:49;;;;;;;0.00;0.00;;;;;;;16.91;52.26;96623.44;8001890;29;20239;-79
2022/09/29 13:59:00;;;;;;;0.00;0.00;;;;;;;17.08;51.84;96621.09;8001888;29;20409;-77
2022/09/29 14:03:06;;;;;;;0.00;0.00;;;;;;;16.47;49.64;96623.06;8001920;29;20263;-78
2022/09/29 14:07:11;;;;;;;0.03;0.03;;;;;;;16.37;45.92;96622.19;8001903;29;20434;-76
2022/09/29 14:11:19;;;;;;;0.00;0.00;;;;;;;15.96;46.60;96635.34;8020904;29;20445;-76
2022/09/29 14:15:22;;;;;;;0.00;0.00;;;;;;;15.83;47.50;96645.22;8032548;29;20238;-74
2022/09/29 14:19:39;;;;;;;0.00;0.00;;;;;;;15.78;46.26;96643.00;8030698;29;20521;-74
2022/09/29 14:23:53;;;;;;;0.00;0.00;;;;;;;15.71;47.00;96635.81;8031263;29;20237;-78
2022/09/29 14:28:02;;;;;;;0.00;0.00;;;;;;;15.77;47.65;96645.75;8031476;29;20325;-76
2022/09/29 14:32:06;;;;;;;0.00;0.00;;;;;;;15.82;48.02;96653.97;8030988;29;20243;-77
2022/09/29 14:36:14;;;;;;;0.00;0.00;;;;;;;15.87;48.55;96657.03;8031198;29;20299;-75
2022/09/29 14:40:30;;;;;;;0.00;0.00;;;;;;;15.62;50.46;96669.56;8031731;29;20553;-76
2022/09/29 14:53:37;;;;;;;0.00;0.00;;;;;;;15.38;51.12;96677.69;8032318;29;20239;-76
2022/09/29 14:57:57;;;;;;;0.00;0.00;;;;;;;15.57;49.49;96676.13;8032055;29;20234;-76
2022/09/29 15:02:16;;;;;;;0.00;0.00;;;;;;;15.39;49.63;96686.34;8032002;29;20242;-78
2022/09/29 15:06:21;;;;;;;0.00;0.00;;;;;;;15.38;49.31;96684.66;8031378;29;20235;-78
2022/09/29 15:10:27;;;;;;;0.00;0.00;;;;;;;15.43;48.93;96695.56;8030929;29;20303;-77
2022/09/29 15:14:33;;;;;;;0.00;0.00;;;;;;;15.33;48.48;96697.28;8031620;29;20546;-76
2022/09/29 15:18:58;;;;;;;0.00;0.00;;;;;;;15.29;48.43;96698.47;8032136;29;20367;-78
2022/09/29 15:23:17;;;;;;;0.00;0.00;;;;;;;15.30;47.31;96700.97;8031056;29;20246;-79
2022/09/29 15:27:20;;;;;;;0.00;0.00;;;;;;;15.33;48.71;96697.28;8031179;29;20242;-79
2022/09/29 15:31:29;;;;;;;0.00;0.00;;;;;;;15.37;48.66;96699.50;8031873;29;20231;-80
2022/09/29 15:35:43;;;;;;;0.00;0.00;;;;;;;15.23;49.26;96698.06;8031842;29;20298;-79
2022/09/29 15:39:50;;;;;;;0.00;0.00;;;;;;;15.16;49.50;96709.94;8035232;29;20257;-79
2022/09/29 15:43:57;;;;;;;0.00;0.00;;;;;;;15.14;49.80;96718.84;8042086;29;20234;-79
2022/09/29 15:48:04;;;;;;;0.00;0.00;;;;;;;15.16;50.52;96727.38;8040457;29;20235;-79
2022/09/29 15:52:13;;;;;;;0.00;0.00;;;;;;;15.16;51.04;96728.19;8037577;29;20230;-78
2022/09/29 15:56:16;;;;;;;0.00;0.00;;;;;;;15.14;51.21;96737.13;8038619;29;20576;-78
2022/09/29 16:00:47;;;;;;;0.00;0.00;;;;;;;15.12;52.92;96747.66;8039030;29;20245;-78
2022/09/29 16:04:55;;;;;;;0.00;0.00;;;;;;;15.12;52.92;96750.28;7983708;29;20526;-78
2022/09/29 16:09:00;;;;;;;0.00;0.00;;;;;;;15.10;53.20;96754.78;8035769;29;22112;-78
2022/09/29 16:13:07;;;;;;;0.00;0.00;;;;;;;15.08;52.38;96750.63;8035816;29;20235;-78
2022/09/29 16:17:11;;;;;;;0.00;0.00;;;;;;;15.03;51.47;96758.84;8037462;29;20541;-78
2022/09/29 16:21:18;;;;;;;0.00;0.00;;;;;;;14.92;51.87;96757.09;8035644;29;20560;-77
2022/09/29 16:25:24;;;;;;;0.00;0.00;;;;;;;14.95;52.27;96759.47;8035438;29;20307;-78
2022/09/29 16:29:31;;;;;;;0.00;0.00;;;;;;;14.73;53.58;96767.34;8035112;29;20238;-78
2022/09/29 16:33:35;;;;;;;0.00;0.00;;;;;;;14.82;54.08;96767.44;8035221;29;20303;-78
2022/09/29 16:37:40;;;;;;;0.00;0.00;;;;;;;14.78;54.18;96766.03;8035249;29;20310;-77
2022/09/29 16:41:47;;;;;;;0.00;0.00;;;;;;;14.85;54.34;96772.41;8035169;29;20291;-78
2022/09/29 16:45:51;;;;;;;0.00;0.00;;;;;;;14.55;54.43;96775.66;8035147;29;21182;-78
2022/09/29 16:49:55;;;;;;;0.00;0.00;;;;;;;14.56;53.41;96781.69;8033863;29;20246;-77
2022/09/29 16:53:59;;;;;;;0.00;0.00;;;;;;;14.71;53.40;96784.91;8033922;29;20234;-77
2022/09/29 16:58:05;;;;;;;0.00;0.00;;;;;;;14.71;53.14;96788.31;8034262;29;20242;-77
2022/09/29 17:02:09;;;;;;;0.00;0.00;;;;;;;14.60;52.50;96786.59;8034688;29;20239;-77
2022/09/29 17:06:11;;;;;;;0.00;0.00;;;;;;;14.64;52.28;96801.03;8034596;29;20271;-77
2022/09/29 17:10:17;;;;;;;0.07;0.07;;;;;;;14.46;52.94;96795.44;8033367;29;20246;-76
2022/09/29 17:14:21;;;;;;;0.10;0.10;;;;;;;14.35;52.92;96794.63;8034298;29;20235;-77
2022/09/29 17:18:25;;;;;;;0.00;0.00;;;;;;;14.35;52.60;96795.44;8033967;29;20287;-75
2022/09/29 17:22:30;;;;;;;0.00;0.00;;;;;;;14.38;53.32;96800.44;8033185;29;20243;-78
2022/09/29 17:30:58;;;;;;;0.10;0.10;;;;;;;14.37;52.38;96810.97;8033612;29;20286;-77
2022/09/29 17:35:01;;;;;;;0.00;0.00;;;;;;;14.38;52.75;96807.44;8033671;29;20406;-76
2022/09/29 17:39:04;;;;;;;0.00;0.00;;;;;;;14.35;52.55;96811.09;8033338;29;20243;-72
2022/09/29 17:43:08;;;;;;;0.00;0.00;;;;;;;14.38;53.28;96812.63;8033332;29;20287;-76
2022/09/29 17:47:13;;;;;;;0.00;0.00;;;;;;;14.35;53.35;96810.25;8033364;29;20303;-74
2022/09/29 17:51:29;;;;;;;0.00;0.00;;;;;;;14.28;53.40;96809.94;8032723;29;20257;-76
2022/09/29 17:55:33;;;;;;;0.00;0.00;;;;;;;14.21;54.14;96809.56;8032834;29;20243;-77
2022/09/29 17:59:39;;;;;;;0.00;0.00;;;;;;;14.21;54.23;96816.53;8032919;29;20302;-75
2022/09/29 18:03:42;;;;;;;0.00;0.00;;;;;;;14.13;54.75;96822.34;8032624;29;20235;-73
2022/09/29 18:07:45;;;;;;;0.10;0.10;;;;;;;14.04;55.65;96823.03;8032760;29;20250;-75
2022/09/29 18:11:48;;;;;;;0.00;0.00;;;;;;;14.03;56.34;96818.78;8032262;29;20239;-75
2022/09/29 18:15:58;;;;;;;0.10;0.10;;;;;;;14.01;56.21;96815.47;8032281;29;20549;-74
2022/09/29 18:20:03;;;;;;;0.00;0.00;;;;;;;13.94;56.59;96817.72;8032089;29;20254;-75
2022/09/29 18:24:08;;;;;;;0.00;0.00;;;;;;;13.93;56.73;96823.84;8032239;29;20251;-76
2022/09/29 18:28:11;;;;;;;0.10;0.10;;;;;;;13.94;56.31;96822.94;8032148;29;20243;-76
2022/09/29 18:32:17;;;;;;;0.00;0.00;;;;;;;13.94;56.40;96827.31;8031777;29;20420;-74
2022/09/29 18:36:21;;;;;;;0.00;0.00;;;;;;;13.81;57.27;96830.00;8032058;29;20427;-75
2022/09/29 18:40:25;;;;;;;0.10;0.10;;;;;;;13.75;57.47;96839.09;8031630;29;20258;-78
2022/09/29 18:44:32;;;;;;;0.07;0.07;;;;;;;13.67;57.65;96841.47;8031276;29;20257;-75
2022/09/29 18:48:37;;;;;;;0.00;0.00;;;;;;;13.47;58.22;96841.13;8031359;29;20247;-78
2022/09/29 18:52:39;;;;;;;0.00;0.00;;;;;;;15.02;70.84;96857.09;8031326;29;20230;-74
2022/09/29 18:56:42;;;;;;;0.10;0.10;;;;;;;15.63;61.82;96853.03;8031591;29;20401;-78
2022/09/29 19:00:48;;;;;;;0.00;0.00;;;;;;;14.55;56.13;96855.59;8031407;29;22400;-77
2022/09/29 19:04:52;;;;;;;0.03;0.03;;;;;;;14.15;57.59;96859.50;8031226;29;20231;-77
2022/09/29 19:08:55;;;;;;;0.07;0.07;;;;;;;13.85;57.55;96866.06;8031009;29;20238;-77
2022/09/29 19:13:01;;;;;;;0.00;0.00;;;;;;;13.64;58.62;96870.28;8030979;29;20432;-77
2022/09/29 19:17:04;;;;;;;0.00;0.00;;;;;;;13.61;58.35;96873.97;8031019;29;20257;-77
2022/09/29 19:21:11;;;;;;;0.00;0.00;;;;;;;13.32;59.00;96883.06;8031060;29;20246;-76
2022/09/29 19:25:17;;;;;;;0.07;0.07;;;;;;;13.15;59.69;96879.88;8031003;29;20226;-76
2022/09/29 19:29:20;;;;;;;0.10;0.10;;;;;;;13.28;59.40;96885.00;8030663;29;20239;-77
2022/09/29 19:33:23;;;;;;;0.00;0.00;;;;;;;13.31;59.43;96890.03;8030853;29;20239;-76
2022/09/29 19:37:27;;;;;;;0.00;0.00;;;;;;;13.24;59.74;96897.41;8030547;29;20242;-73
2022/09/29 19:41:30;;;;;;;0.00;0.00;;;;;;;13.21;59.52;96900.25;8030423;29;20356;-75
2022/09/29 19:45:36;;;;;;;0.10;0.10;;;;;;;13.07;59.65;96914.19;8030557;29;20241;-75
2022/09/29 19:49:39;;;;;;;0.10;0.10;;;;;;;12.94;59.80;96917.78;8030655;29;20560;-75
2022/09/29 19:53:43;;;;;;;0.00;0.00;;;;;;;12.99;59.27;96919.13;8030689;29;20287;-75
2022/09/29 19:57:51;;;;;;;0.00;0.00;;;;;;;13.01;59.24;96919.03;8030294;29;20298;-76
2022/09/29 20:01:53;;;;;;;0.00;0.00;;;;;;;12.90;59.29;96919.75;8030672;29;20243;-75
2022/09/29 20:05:59;;;;;;;0.00;0.00;;;;;;;12.91;59.23;96914.47;8030483;29;20235;-76
2022/09/29 20:10:03;;;;;;;0.10;0.10;;;;;;;12.95;58.90;96916.88;8029802;29;20246;-76
2022/09/29 20:14:09;;;;;;;0.10;0.10;;;;;;;12.94;58.50;96926.41;8030462;29;20235;-75
2022/09/29 20:18:12;;;;;;;0.10;0.10;;;;;;;12.79;58.38;96927.47;8030284;29;20443;-76
2022/09/29 20:22:15;;;;;;;0.00;0.00;;;;;;;12.68;59.08;96936.03;8030280;29;20242;-75
2022/09/29 20:26:19;;;;;;;0.00;0.00;;;;;;;12.67;58.80;96937.78;8031984;29;20238;-75
2022/09/29 20:30:25;;;;;;;0.03;0.03;;;;;;;12.72;58.68;96937.47;8035500;29;20242;-76
2022/09/29 20:34:28;;;;;;;0.10;0.10;;;;;;;12.67;58.35;96944.75;8035046;29;20432;-75
2022/09/29 20:38:33;;;;;;;0.10;0.10;;;;;;;12.65;58.59;96947.44;8035142;29;20247;-75
2022/09/29 20:42:37;;;;;;;0.07;0.07;;;;;;;12.48;58.10;96945.19;8035022;29;20311;-76
2022/09/29 20:46:40;;;;;;;0.10;0.10;;;;;;;12.44;58.53;96948.94;8034857;29;20245;-76
2022/09/29 20:50:44;;;;;;;0.10;0.10;;;;;;;12.36;58.65;96954.66;8034972;29;20537;-76
2022/09/29 20:54:47;;;;;;;0.10;0.10;;;;;;;12.33;59.01;96958.25;8035102;29;20507;-75
2022/09/29 20:58:51;;;;;;;0.10;0.10;;;;;;;12.38;58.76;96957.16;8034745;29;20241;-76
2022/09/29 21:02:54;;;;;;;0.10;0.10;;;;;;;12.27;58.90;96960.44;8034556;29;20239;-76
2022/09/29 21:06:56;;;;;;;0.10;0.10;;;;;;;12.19;58.75;96957.56;8034437;29;20238;-76
2022/09/29 21:11:00;;;;;;;0.10;0.10;;;;;;;12.19;58.46;96968.75;8034360;29;20243;-75
2022/09/29 21:15:05;;;;;;;0.10;0.10;;;;;;;12.04;58.85;96972.38;8034457;29;20241;-75
2022/09/29 21:19:08;;;;;;;0.10;0.10;;;;;;;12.09;58.51;96978.09;8034219;29;20311;-75
2022/09/29 21:23:11;;;;;;;0.10;0.10;;;;;;;12.09;58.44;96991.91;8034185;29;20254;-75
2022/09/29 21:27:14;;;;;;;0.10;0.10;;;;;;;12.07;58.25;96993.75;8033958;29;20223;-76
2022/09/29 21:31:20;;;;;;;0.10;0.10;;;;;;;12.04;58.43;96988.75;8033854;29;20247;-76
2022/09/29 21:35:23;;;;;;;0.00;0.00;;;;;;;11.92;58.47;96990.41;8033759;29;20231;-76
2022/09/29 21:39:26;;;;;;;0.00;0.00;;;;;;;11.93;58.42;96999.00;8032598;29;20234;-75
2022/09/29 21:43:29;;;;;;;0.10;0.10;;;;;;;12.00;58.05;96999.47;8033523;29;20239;-75
2022/09/29 21:51:50;;;;;;;0.10;0.10;;;;;;;11.88;57.36;97006.22;8032516;29;20231;-76
2022/09/29 21:55:53;;;;;;;0.10;0.10;;;;;;;11.76;57.20;97010.44;8033072;29;20526;-76
2022/09/29 21:59:55;;;;;;;0.10;0.10;;;;;;;11.79;57.33;97012.03;8032778;29;20383;-76
2022/09/29 22:04:01;;;;;;;0.10;0.10;;;;;;;11.78;57.45;97018.13;8032902;29;20283;-76
2022/09/29 22:08:03;;;;;;;0.10;0.10;;;;;;;11.66;57.71;97024.94;8032777;29;20404;-75
2022/09/29 22:12:13;;;;;;;0.10;0.10;;;;;;;11.65;57.65;97024.13;8032450;29;20473;-75
2022/09/29 22:16:16;;;;;;;0.10;0.10;;;;;;;11.61;57.88;97024.38;8032521;29;20239;-75
2022/09/29 22:20:20;;;;;;;0.10;0.10;;;;;;;11.56;57.55;97029.88;8032186;29;20239;-75
2022/09/29 22:24:25;;;;;;;0.10;0.10;;;;;;;11.48;57.90;97032.09;8032241;29;20238;-76
2022/09/29 22:28:28;;;;;;;0.10;0.10;;;;;;;11.47;58.15;97033.88;8031952;29;20294;-76
2022/09/29 22:32:30;;;;;;;0.10;0.10;;;;;;;11.37;58.16;97037.16;8032011;29;20246;-75
2022/09/29 22:36:35;;;;;;;0.10;0.10;;;;;;;11.33;58.44;97034.75;8031875;29;20242;-76
2022/09/29 22:40:39;;;;;;;0.10;0.10;;;;;;;11.31;58.54;97035.78;8031709;29;20475;-76
2022/09/29 22:44:42;;;;;;;0.10;0.10;;;;;;;11.26;58.32;97045.59;8031560;29;20246;-75
2022/09/29 22:48:45;;;;;;;0.10;0.10;;;;;;;11.33;58.20;97052.88;8030878;29;20294;-75
2022/09/29 22:52:49;;;;;;;0.10;0.10;;;;;;;11.30;57.83;97063.44;8031651;29;20239;-75
2022/09/29 22:56:53;;;;;;;0.10;0.10;;;;;;;11.18;58.31;97066.78;8031431;29;20234;-75
2022/09/29 23:01:03;;;;;;;0.10;0.10;;;;;;;11.30;57.99;97066.03;8031168;29;20257;-75
2022/09/29 23:05:06;;;;;;;0.10;0.10;;;;;;;11.32;57.74;97063.34;8031157;29;20235;-76
2022/09/29 23:09:10;;;;;;;0.10;0.10;;;;;;;11.27;58.08;97062.78;8031096;29;20243;-76
2022/09/29 23:13:14;;;;;;;0.10;0.10;;;;;;;11.27;58.16;97062.78;8031149;29;20237;-76
2022/09/29 23:17:16;;;;;;;0.10;0.10;;;;;;;11.21;58.70;97058.81;8031148;29;20254;-76
2022/09/29 23:21:19;;;;;;;0.10;0.10;;;;;;;11.18;58.73;97068.56;8031023;29;20527;-75
2022/09/29 23:25:23;;;;;;;0.10;0.10;;;;;;;11.16;58.47;97071.25;8031113;29;20549;-75
2022/09/29 23:29:26;;;;;;;0.10;0.10;;;;;;;11.20;58.42;97061.53;8030584;29;20464;-75
2022/09/29 23:33:30;;;;;;;0.10;0.10;;;;;;;11.27;58.15;97066.25;8031100;29;20303;-75
2022/09/29 23:41:52;;;;;;;0.10;0.10;;;;;;;11.28;57.61;97069.66;8029821;29;20242;-75
2022/09/29 23:45:55;;;;;;;0.10;0.10;;;;;;;11.20;57.86;97066.72;8030801;29;20396;-76
2022/09/29 23:49:58;;;;;;;0.10;0.10;;;;;;;11.14;58.46;97063.56;8030612;29;20522;-76
2022/09/29 23:54:00;;;;;;;0.10;0.10;;;;;;;11.09;58.44;97070.75;8030543;29;20241;-76
2022/09/29 23:58:04;;;;;;;0.10;0.10;;;;;;;11.12;58.29;97069.78;8030684;29;20560;-75
